WHTO2: S Canadian Riv, Whitefield, OK

Data processed at Sat Mar 10 2018 23:48


All information presented herein is the property of the government of the United States of America and may be revised or deleted at any time without prior notice.
Dissemination of this information without the expressed written consent of the Public Affairs Office, Tulsa District U.S. Army Corps of Engineers is strictly prohibited.
These data are gathered electronically and, as presented, have not undergone any form of quality control. These data are not guaranteed to be valid or correct.
Go to home page.
Go to station list.

Upstream stations:

Downstream station:
Previous Day
Next Day
Current Day
    
SHEF ID:       WHTO2     Canadian River near Whitefield,
STATION TYPE:  

               PRECIP     STAGE  STAGE(2)  RIV-FLOW  BAT-LOAD
                   in        ft        ft       cfs      volt
              Ccp-Rev   Ccp-Rev   Ccp-Rev   Ccp-Rev   Ccp-Rev
(US/Central)
03/08 00:00      0.00      8.23      8.41     20044     12.65
03/08 01:00      0.00      8.21      8.41     19937     12.65
03/08 02:00      0.00      8.24      8.42     20098     12.65
03/08 03:00      0.00      8.23      8.42     20044     12.57
03/08 04:00      0.00      8.22      8.41     19991     12.57
03/08 05:00      0.00      8.23      8.41     20044     12.57
03/08 06:00      0.00      8.22      8.42     19991     12.49
03/08 07:00      0.00      8.24      8.41     20098     12.49
03/08 08:00      0.00      8.22      8.41     19991     12.57
03/08 09:00      0.00      8.21      8.39     19937     12.81
03/08 10:00      0.00      8.21      8.39     19937     13.92
03/08 11:00      0.00      8.21      8.39     19937     14.24
03/08 12:00      0.00      8.21      8.39     19937     14.24
03/08 13:00      0.00      8.22      8.38     19991     14.24
03/08 14:00      0.00      8.21      8.39     19937     14.32
03/08 15:00      0.00      8.23      8.38     20044     14.08
03/08 16:00      0.00      8.21      8.39     19937     14.08
03/08 17:00      0.00      8.23      8.37     20044     14.00
03/08 18:00      0.00      8.19      8.38     19830     13.68
03/08 19:00      0.00      8.20      8.38     19883     13.21
03/08 20:00      0.00      8.21      8.38     19937     12.89
03/08 21:00      0.00      8.20      8.37     19883     12.65
03/08 22:00      0.00      8.19      8.38     19830     12.65
03/08 23:00      0.00      8.20      8.38     19883     12.49